createdAt,value
2023-04-08T00:18:09.523Z,987.5
2023-04-08T00:37:22.937Z,987.6
2023-04-08T00:56:35.374Z,987.6
2023-04-08T01:15:45.729Z,987.7
2023-04-08T01:34:57.914Z,987.7
2023-04-08T01:54:10.547Z,987.7
2023-04-08T02:13:23.106Z,987.8
2023-04-08T02:32:33.669Z,987.9
2023-04-08T02:51:47.205Z,987.8
2023-04-08T03:10:56.555Z,987.9
2023-04-08T03:30:09.101Z,988
2023-04-08T03:49:18.253Z,988
2023-04-08T04:08:31.420Z,988
2023-04-08T04:27:45.165Z,988.2
2023-04-08T04:46:58.162Z,988.4
2023-04-08T05:06:07.672Z,988.4
2023-04-08T05:25:21.037Z,988.4
2023-04-08T05:44:35.053Z,988.6
2023-04-08T06:03:49.204Z,988.7
2023-04-08T06:23:04.153Z,988.9
2023-04-08T06:42:17.338Z,988.9
2023-04-08T07:01:30.023Z,989.2
2023-04-08T07:20:43.405Z,989.3
2023-04-08T07:39:57.759Z,989.3
2023-04-08T07:59:10.764Z,989.4
2023-04-08T08:18:23.928Z,989.6
2023-04-08T08:37:40.813Z,989.6
2023-04-08T08:56:54.990Z,989.8
2023-04-08T09:16:07.951Z,989.8
2023-04-08T09:35:24.505Z,989.9
2023-04-08T09:54:36.832Z,990
2023-04-08T10:13:52.832Z,990
2023-04-08T10:33:05.028Z,990
2023-04-08T10:52:18.619Z,990.1
2023-04-08T11:11:31.965Z,990
2023-04-08T11:30:46.493Z,990.1
2023-04-08T11:50:01.753Z,990.1
2023-04-08T12:09:17.020Z,989.9
2023-04-08T12:28:31.780Z,989.9
2023-04-08T12:47:47.384Z,989.8
2023-04-08T13:07:06.070Z,989.7
2023-04-08T13:26:15.052Z,989.7
2023-04-08T13:45:26.774Z,989.7
2023-04-08T14:04:40.731Z,989.7
2023-04-08T14:23:55.411Z,989.7
2023-04-08T14:43:09.215Z,989.6
2023-04-08T15:02:24.568Z,989.6
2023-04-08T15:21:35.205Z,989.6
2023-04-08T15:40:48.691Z,989.6
2023-04-08T16:00:01.013Z,989.7
2023-04-08T16:19:12.125Z,989.8
2023-04-08T16:38:25.013Z,989.8
2023-04-08T16:57:40.130Z,990
2023-04-08T17:16:54.378Z,990.1
2023-04-08T17:36:05.486Z,990.3
2023-04-08T17:55:16.340Z,990.4
2023-04-08T18:14:28.903Z,990.5
2023-04-08T18:33:39.713Z,990.8
2023-04-08T18:52:50.689Z,991
2023-04-08T19:12:02.998Z,990.9
2023-04-08T19:31:15.178Z,991.1
2023-04-08T19:50:25.714Z,991
2023-04-08T20:09:38.473Z,991.1
2023-04-08T20:28:51.645Z,991.4
2023-04-08T20:48:03.277Z,991.4
2023-04-08T21:07:15.813Z,991.4
2023-04-08T21:26:26.950Z,991.3
2023-04-08T21:45:40.824Z,991.3
2023-04-08T22:04:51.886Z,991.4
2023-04-08T22:24:03.552Z,991.5
2023-04-08T22:43:16.918Z,991.5
2023-04-08T23:02:30.256Z,991.4
2023-04-08T23:21:42.167Z,991.5
2023-04-08T23:40:53.516Z,991.5
